createdAt,value
2019-03-12T00:00:36.462Z,0.48
2019-03-12T00:05:41.811Z,0.51
2019-03-12T00:10:47.025Z,0.36
2019-03-12T00:15:52.181Z,0.33
2019-03-12T00:20:57.273Z,0.27
2019-03-12T00:26:02.417Z,0.25
2019-03-12T00:31:07.444Z,0.15
2019-03-12T00:36:12.590Z,0.13
2019-03-12T00:41:20.097Z,0.18
2019-03-12T00:46:27.085Z,0.05
2019-03-12T00:51:31.676Z,0.08
2019-03-12T00:56:36.786Z,0.09
2019-03-12T01:01:41.940Z,0.04
2019-03-12T01:06:47.037Z,0.04
2019-03-12T01:11:52.174Z,-0.04
2019-03-12T01:16:57.210Z,0.01
2019-03-12T01:22:02.335Z,0.06
2019-03-12T01:27:07.477Z,0.00
2019-03-12T01:32:12.589Z,0.02
2019-03-12T01:37:17.713Z,0.07
2019-03-12T01:42:25.953Z,0.07
2019-03-12T01:47:31.154Z,0.07
2019-03-12T01:52:36.403Z,0.05
2019-03-12T01:57:41.625Z,-0.01
2019-03-12T02:02:46.883Z,0.04
2019-03-12T02:07:51.916Z,0.06
2019-03-12T02:12:56.961Z,0.13
2019-03-12T02:18:02.048Z,0.30
2019-03-12T02:23:07.237Z,0.45
2019-03-12T02:28:12.386Z,0.50
2019-03-12T02:33:17.651Z,0.57
2019-03-12T02:38:22.753Z,0.56
2019-03-12T02:43:28.122Z,0.58
2019-03-12T02:48:33.162Z,0.55
2019-03-12T02:53:38.316Z,0.56
2019-03-12T02:58:43.354Z,0.52
2019-03-12T03:03:48.392Z,0.44
2019-03-12T03:08:53.501Z,0.37
2019-03-12T03:13:59.739Z,0.31
2019-03-12T03:19:06.084Z,0.19
2019-03-12T03:24:11.248Z,0.16
2019-03-12T03:29:16.281Z,0.10
2019-03-12T03:34:27.223Z,0.14
2019-03-12T03:39:28.287Z,0.05
2019-03-12T03:44:33.725Z,0.07
2019-03-12T03:49:39.223Z,0.08
2019-03-12T03:54:44.300Z,0.05
2019-03-12T03:59:49.510Z,0.07
2019-03-12T04:04:54.557Z,0.05
2019-03-12T04:09:59.684Z,0.04
2019-03-12T04:15:06.562Z,-0.09
2019-03-12T04:20:16.994Z,-0.02
2019-03-12T04:25:22.298Z,0.03
2019-03-12T04:30:27.553Z,0.07
2019-03-12T04:35:35.604Z,0.03
2019-03-12T04:40:40.638Z,-0.11
2019-03-12T04:45:45.954Z,0.00
2019-03-12T04:50:51.162Z,0.00
2019-03-12T04:55:56.301Z,-0.03
2019-03-12T05:01:01.544Z,-0.13
2019-03-12T05:06:06.659Z,-0.11
2019-03-12T05:11:11.909Z,-0.16
2019-03-12T05:16:17.008Z,-0.02
2019-03-12T05:21:22.057Z,0.08
2019-03-12T05:26:27.107Z,0.16
2019-03-12T05:31:32.190Z,0.26
2019-03-12T05:36:37.281Z,0.27
2019-03-12T05:41:42.349Z,0.20
2019-03-12T05:46:47.892Z,0.28
2019-03-12T05:51:53.108Z,0.38
2019-03-12T05:56:58.284Z,0.52
2019-03-12T06:02:03.612Z,0.67
2019-03-12T06:07:08.786Z,0.64
2019-03-12T06:12:13.970Z,0.80
2019-03-12T06:17:18.998Z,0.92
2019-03-12T06:22:24.051Z,0.77
2019-03-12T06:27:29.216Z,0.70
2019-03-12T06:32:35.891Z,0.83
2019-03-12T06:37:45.329Z,0.93
2019-03-12T06:42:57.799Z,1.05
2019-03-12T06:48:10.824Z,1.16
2019-03-12T06:53:23.351Z,1.29
2019-03-12T06:58:31.233Z,1.38
2019-03-12T07:03:56.198Z,1.53
2019-03-12T07:09:05.986Z,1.64
2019-03-12T07:14:22.553Z,1.71
2019-03-12T07:19:40.099Z,1.83
2019-03-12T07:25:01.816Z,1.94
2019-03-12T07:30:17.422Z,2.09
2019-03-12T07:35:29.810Z,2.21
2019-03-12T07:40:42.703Z,2.37
2019-03-12T07:46:07.854Z,2.51
2019-03-12T07:51:31.249Z,2.56
2019-03-12T07:56:38.067Z,2.68
2019-03-12T08:01:44.852Z,2.69
2019-03-12T08:06:54.320Z,2.80
2019-03-12T08:12:01.183Z,2.90
2019-03-12T08:17:09.142Z,3.01
2019-03-12T08:22:22.267Z,3.05
2019-03-12T08:27:31.583Z,3.19
2019-03-12T08:32:50.639Z,3.29
2019-03-12T08:37:57.385Z,3.48
2019-03-12T08:43:13.076Z,3.76
2019-03-12T08:48:31.571Z,3.71
2019-03-12T08:53:41.545Z,3.73
2019-03-12T08:59:06.035Z,3.81
2019-03-12T09:04:12.804Z,3.90
2019-03-12T09:09:37.574Z,3.93
2019-03-12T09:14:47.016Z,4.10
2019-03-12T09:20:05.466Z,3.97
2019-03-12T09:25:12.387Z,4.14
2019-03-12T09:30:39.698Z,4.24
2019-03-12T09:36:03.979Z,4.23
2019-03-12T09:41:10.731Z,4.39
2019-03-12T09:46:20.213Z,4.71
2019-03-12T09:51:33.045Z,4.62
2019-03-12T09:56:48.819Z,4.90
2019-03-12T10:01:59.496Z,5.17
2019-03-12T10:07:12.681Z,5.25
2019-03-12T10:12:22.265Z,4.88
2019-03-12T10:17:37.966Z,5.40
2019-03-12T10:22:44.763Z,5.63
2019-03-12T10:27:51.638Z,5.94
2019-03-12T10:33:16.680Z,5.85
2019-03-12T10:38:59.630Z,5.64
2019-03-12T10:44:06.895Z,5.67
2019-03-12T10:49:12.020Z,5.65
2019-03-12T10:54:17.106Z,5.75
2019-03-12T10:59:22.785Z,6.04
2019-03-12T11:04:27.912Z,6.32
2019-03-12T11:09:33.201Z,6.73
2019-03-12T11:14:38.977Z,6.38
2019-03-12T11:19:44.231Z,6.25
2019-03-12T11:24:49.253Z,6.13
2019-03-12T11:29:54.327Z,5.90
2019-03-12T11:34:59.458Z,5.65
2019-03-12T11:40:07.880Z,5.90
2019-03-12T11:45:16.783Z,5.83
2019-03-12T11:50:23.119Z,6.08
2019-03-12T11:55:28.516Z,5.90
2019-03-12T12:00:35.794Z,5.59
2019-03-12T12:05:40.993Z,5.05
2019-03-12T12:10:46.285Z,5.39
2019-03-12T12:15:51.410Z,5.65
2019-03-12T12:20:56.535Z,5.86
2019-03-12T12:26:01.591Z,5.52
2019-03-12T12:31:06.689Z,5.48
2019-03-12T12:36:11.810Z,5.42
2019-03-12T12:41:16.833Z,5.44
2019-03-12T12:46:21.972Z,5.75
2019-03-12T12:51:27.101Z,5.90
2019-03-12T12:56:32.285Z,6.15
2019-03-12T13:01:37.593Z,6.62
2019-03-12T13:06:42.641Z,6.81
2019-03-12T13:11:47.713Z,7.00
2019-03-12T13:16:52.906Z,6.77
2019-03-12T13:21:57.955Z,6.51
2019-03-12T13:27:03.118Z,6.81
2019-03-12T13:32:13.553Z,6.73
2019-03-12T13:37:15.148Z,6.96
2019-03-12T13:42:20.693Z,6.99
2019-03-12T13:47:28.636Z,7.10
2019-03-12T13:52:32.933Z,7.02
2019-03-12T13:57:38.102Z,6.88
2019-03-12T14:02:43.593Z,7.16
2019-03-12T14:07:49.410Z,7.03
2019-03-12T14:12:55.736Z,6.71
2019-03-12T14:18:01.150Z,8.33
2019-03-12T14:23:06.760Z,10.25
2019-03-12T14:28:11.942Z,11.88
2019-03-12T14:33:17.091Z,12.43
2019-03-12T14:38:22.255Z,12.62
2019-03-12T14:43:27.567Z,12.72
2019-03-12T14:48:44.380Z,11.61
2019-03-12T14:53:55.013Z,9.43
2019-03-12T14:59:00.465Z,9.78
2019-03-12T15:04:06.149Z,11.03
2019-03-12T15:09:14.397Z,12.65
2019-03-12T15:14:21.219Z,12.25
2019-03-12T15:19:26.351Z,12.54
2019-03-12T15:24:31.483Z,12.27
2019-03-12T15:29:37.824Z,11.07
2019-03-12T15:34:43.017Z,10.48
2019-03-12T15:39:48.209Z,9.45
2019-03-12T15:44:53.321Z,8.84
2019-03-12T15:49:58.551Z,8.50
2019-03-12T15:55:05.043Z,8.03
2019-03-12T16:00:12.917Z,7.74
2019-03-12T16:05:18.416Z,7.75
2019-03-12T16:10:23.729Z,7.43
2019-03-12T16:15:29.795Z,7.23
2019-03-12T16:20:34.951Z,6.90
2019-03-12T16:25:40.125Z,6.70
2019-03-12T16:30:45.187Z,6.63
2019-03-12T16:35:50.368Z,6.64
2019-03-12T16:40:55.497Z,6.50
2019-03-12T16:46:00.652Z,6.26
2019-03-12T16:51:05.827Z,6.14
2019-03-12T16:56:11.290Z,5.99
2019-03-12T17:01:16.518Z,5.85
2019-03-12T17:06:22.006Z,5.76
2019-03-12T17:11:27.055Z,5.63
2019-03-12T17:16:32.355Z,5.54
2019-03-12T17:21:37.403Z,5.27
2019-03-12T17:26:42.869Z,5.27
2019-03-12T17:31:47.936Z,5.19
2019-03-12T17:36:53.167Z,5.15
2019-03-12T17:42:00.459Z,5.11
2019-03-12T17:47:05.833Z,5.08
2019-03-12T17:52:11.993Z,5.04
2019-03-12T17:57:17.119Z,4.95
2019-03-12T18:02:22.483Z,4.88
2019-03-12T18:07:29.460Z,4.72
2019-03-12T18:12:34.671Z,4.59
2019-03-12T18:17:39.970Z,4.55
2019-03-12T18:22:45.157Z,4.42
2019-03-12T18:27:50.490Z,4.34
2019-03-12T18:32:55.684Z,4.22
2019-03-12T18:38:00.803Z,4.20
2019-03-12T18:43:06.216Z,4.17
2019-03-12T18:48:11.415Z,4.12
2019-03-12T18:53:16.658Z,4.07
2019-03-12T18:58:21.926Z,4.01
2019-03-12T19:03:27.042Z,4.02
2019-03-12T19:08:32.648Z,4.05
2019-03-12T19:13:39.064Z,3.95
2019-03-12T19:18:44.330Z,3.92
2019-03-12T19:23:49.510Z,3.85
2019-03-12T19:28:54.667Z,3.84
2019-03-12T19:34:01.368Z,3.84
2019-03-12T19:39:07.993Z,3.79
2019-03-12T19:44:14.752Z,3.82
2019-03-12T19:49:20.327Z,3.85
2019-03-12T19:54:25.721Z,3.88
2019-03-12T19:59:30.945Z,3.92
2019-03-12T20:04:46.806Z,3.83
2019-03-12T20:09:45.749Z,3.77
2019-03-12T20:15:21.372Z,3.84
2019-03-12T20:20:55.479Z,3.64
2019-03-12T20:26:22.843Z,3.57
2019-03-12T20:31:45.841Z,3.43
2019-03-12T20:37:03.144Z,3.37
2019-03-12T20:42:37.932Z,3.27
2019-03-12T20:48:07.222Z,3.29
2019-03-12T20:53:24.172Z,3.22
2019-03-12T20:58:44.711Z,3.17
2019-03-12T21:04:15.830Z,3.13
2019-03-12T21:09:41.844Z,3.05
2019-03-12T21:15:15.999Z,2.98
2019-03-12T21:20:47.835Z,2.92
2019-03-12T21:26:17.159Z,2.95
2019-03-12T21:31:22.648Z,2.84
2019-03-12T21:36:30.906Z,2.89
2019-03-12T21:41:34.824Z,2.86
2019-03-12T21:46:40.040Z,2.77
2019-03-12T21:51:45.243Z,2.82
2019-03-12T21:56:50.409Z,2.86
2019-03-12T22:01:55.588Z,2.84
2019-03-12T22:07:01.093Z,2.87
2019-03-12T22:12:06.337Z,2.85
2019-03-12T22:17:11.979Z,2.79
2019-03-12T22:22:29.349Z,2.72
2019-03-12T22:27:34.576Z,2.65
2019-03-12T22:32:39.685Z,2.65
2019-03-12T22:37:44.933Z,2.58
2019-03-12T22:42:50.084Z,2.58
2019-03-12T22:47:55.431Z,2.57
2019-03-12T22:53:00.485Z,2.53
2019-03-12T22:58:05.935Z,2.51
2019-03-12T23:03:29.291Z,2.59
2019-03-12T23:08:52.289Z,2.56
2019-03-12T23:13:59.376Z,2.65
2019-03-12T23:19:05.808Z,2.56
2019-03-12T23:24:11.182Z,2.63
2019-03-12T23:29:16.709Z,2.68
2019-03-12T23:34:22.414Z,2.69
2019-03-12T23:39:27.630Z,2.69
2019-03-12T23:44:32.839Z,2.72
2019-03-12T23:49:38.267Z,2.83
2019-03-12T23:54:43.706Z,2.93
2019-03-12T23:59:48.848Z,2.89
